TimeEDT,TemperatureF,Dew PointF,Humidity,Sea Level PressureIn,VisibilityMPH,Wind Direction,Wind SpeedMPH,Gust SpeedMPH,PrecipitationIn,Events,Conditions,WindDirDegrees,DateUTC
12:53 AM,57.0,52.0,83,29.94,10.0,North,10.4,-,N/A,,Clear,350,2012-10-27 04:53:00
1:53 AM,55.0,51.1,86,29.94,10.0,NNE,6.9,-,N/A,,Clear,20,2012-10-27 05:53:00
2:53 AM,53.1,50.0,89,29.93,10.0,North,4.6,-,N/A,,Clear,10,2012-10-27 06:53:00
3:53 AM,52.0,48.9,89,29.91,10.0,North,3.5,-,N/A,,Clear,10,2012-10-27 07:53:00
4:53 AM,52.0,48.9,89,29.91,9.0,NE,4.6,-,N/A,,Clear,50,2012-10-27 08:53:00
5:53 AM,51.1,48.9,92,29.92,8.0,Calm,Calm,-,N/A,,Clear,0,2012-10-27 09:53:00
6:53 AM,50.0,48.9,96,29.93,5.0,Calm,Calm,-,N/A,,Clear,0,2012-10-27 10:53:00
7:13 AM,50.0,48.2,94,29.96,4.0,Calm,Calm,-,N/A,,Scattered Clouds,0,2012-10-27 11:13:00
7:22 AM,50.0,48.2,94,29.96,5.0,Calm,Calm,-,N/A,,Mostly Cloudy,0,2012-10-27 11:22:00
7:53 AM,48.9,48.0,97,29.94,4.0,Calm,Calm,-,N/A,,Mostly Cloudy,0,2012-10-27 11:53:00
8:53 AM,51.1,48.9,92,29.95,4.0,NNW,3.5,-,N/A,,Overcast,340,2012-10-27 12:53:00
9:53 AM,53.1,51.1,93,29.96,5.0,Calm,Calm,-,N/A,,Overcast,0,2012-10-27 13:53:00
11:53 AM,57.0,52.0,83,29.95,8.0,Calm,Calm,-,N/A,,Overcast,0,2012-10-27 15:53:00
12:53 PM,59.0,52.0,78,29.94,10.0,WNW,9.2,-,N/A,,Overcast,290,2012-10-27 16:53:00
1:32 PM,60.8,51.8,72,29.95,10.0,NNW,6.9,-,N/A,,Overcast,330,2012-10-27 17:32:00
1:53 PM,60.1,51.1,72,29.92,10.0,WNW,6.9,-,N/A,,Overcast,300,2012-10-27 17:53:00
2:53 PM,55.0,50.0,83,29.93,9.0,WNW,10.4,-,N/A,,Overcast,300,2012-10-27 18:53:00
3:10 PM,53.6,50.0,88,29.95,9.0,WNW,10.4,-,N/A,,Overcast,300,2012-10-27 19:10:00
3:31 PM,53.6,50.0,88,29.95,1.8,WNW,8.1,-,0.01,Rain,Rain,300,2012-10-27 19:31:00
3:53 PM,51.1,48.9,92,29.94,2.0,NNW,10.4,-,0.04,Rain,Light Rain,340,2012-10-27 19:53:00
4:11 PM,51.8,48.2,88,29.95,2.5,NW,10.4,-,0.01,Rain,Light Rain,310,2012-10-27 20:11:00
4:18 PM,51.8,48.2,88,29.95,2.5,NW,8.1,-,0.01,Rain,Light Rain,320,2012-10-27 20:18:00
4:53 PM,50.0,46.9,89,29.96,2.5,NNW,9.2,-,0.01,,Overcast,330,2012-10-27 20:53:00
5:00 PM,48.2,46.4,93,29.97,3.0,NNW,8.1,-,N/A,,Overcast,330,2012-10-27 21:00:00
5:46 PM,48.2,46.4,93,29.98,2.5,NNW,4.6,-,N/A,,Overcast,330,2012-10-27 21:46:00
5:53 PM,48.0,46.0,93,29.97,2.0,North,5.8,-,0.00,Rain,Light Rain,350,2012-10-27 21:53:00
6:06 PM,48.2,46.4,93,29.98,3.0,North,6.9,-,0.01,Rain,Light Rain,360,2012-10-27 22:06:00
6:18 PM,48.2,46.4,93,29.99,2.5,North,9.2,-,0.01,,Overcast,350,2012-10-27 22:18:00
6:53 PM,48.0,45.0,89,29.98,2.5,North,5.8,-,0.01,,Overcast,360,2012-10-27 22:53:00
7:00 PM,48.2,46.4,93,29.99,10.0,North,5.8,-,N/A,,Overcast,350,2012-10-27 23:00:00
7:53 PM,48.0,46.0,93,29.98,6.0,North,5.8,-,N/A,,Overcast,350,2012-10-27 23:53:00
8:53 PM,48.0,46.0,93,29.98,3.0,North,3.5,-,N/A,,Overcast,350,2012-10-28 00:53:00
9:53 PM,48.0,46.0,93,29.97,6.0,Calm,Calm,-,0.01,,Overcast,0,2012-10-28 01:53:00
10:53 PM,48.0,46.0,93,29.97,6.0,North,6.9,-,N/A,,Overcast,350,2012-10-28 02:53:00